Time;durP1;ratioP1;P1;durP2;ratioP2;P2;SDS_P1;SDS_P2;PMS_P1;PMS_P2;Temp;Humidity;BMP_temperature;BMP_pressure;BME280_temperature;BME280_humidity;BME280_pressure;Samples;Min_cycle;Max_cycle;Signal;HPM_P1;HPM_P2
2023/07/24 00:01:44;;;;;;;7.95;3.03;;;;;;;17.92;100.00;100405.09;5075730;28;20024;-61
2023/07/24 00:04:10;;;;;;;4.70;3.20;;;;;;;17.94;100.00;100407.72;5075772;28;20501;-61
2023/07/24 00:06:35;;;;;;;6.32;3.20;;;;;;;17.94;100.00;100403.28;5075478;28;20031;-60
2023/07/24 00:09:00;;;;;;;7.60;3.40;;;;;;;17.91;100.00;100392.66;5075814;28;20031;-61
2023/07/24 00:11:26;;;;;;;5.45;3.58;;;;;;;17.93;100.00;100395.28;5075497;28;20386;-60
2023/07/24 00:13:51;;;;;;;5.15;3.22;;;;;;;17.92;100.00;100399.75;5075429;28;20108;-61
2023/07/24 00:16:16;;;;;;;4.88;3.33;;;;;;;17.90;100.00;100392.69;5075305;28;20486;-61
2023/07/24 00:18:42;;;;;;;5.72;3.53;;;;;;;17.90;100.00;100392.69;5075402;28;20025;-61
2023/07/24 00:21:07;;;;;;;7.40;3.40;;;;;;;17.93;100.00;100384.59;5075271;28;20085;-60
2023/07/24 00:23:33;;;;;;;6.78;3.67;;;;;;;17.93;100.00;100379.25;5075224;28;20032;-61
2023/07/24 00:25:58;;;;;;;6.03;3.85;;;;;;;17.94;100.00;100381.00;5075258;28;20055;-61
2023/07/24 00:28:23;;;;;;;7.22;3.75;;;;;;;17.93;100.00;100379.25;5075165;28;20020;-61
2023/07/24 00:30:49;;;;;;;6.43;3.63;;;;;;;17.91;100.00;100373.97;5075408;28;20035;-60
2023/07/24 00:33:14;;;;;;;7.38;3.80;;;;;;;17.91;100.00;100373.09;5074945;28;20056;-60
2023/07/24 00:35:39;;;;;;;6.00;3.90;;;;;;;17.91;100.00;100363.25;5075119;28;20474;-60
2023/07/24 00:38:05;;;;;;;5.15;3.67;;;;;;;17.89;100.00;100367.75;5075270;28;20032;-60
2023/07/24 00:40:30;;;;;;;5.60;3.40;;;;;;;17.89;100.00;100356.19;5074942;28;20465;-61
2023/07/24 00:42:55;;;;;;;5.53;3.50;;;;;;;17.90;100.00;100358.84;5074864;28;20032;-61
2023/07/24 00:45:22;;;;;;;6.18;3.47;;;;;;;17.89;100.00;100362.41;5074782;28;20029;-61
2023/07/24 00:47:48;;;;;;;8.25;3.75;;;;;;;17.89;100.00;100353.53;5075001;28;20036;-61
2023/07/24 00:50:13;;;;;;;6.70;4.03;;;;;;;17.87;100.00;100344.69;5074751;28;20020;-61
2023/07/24 00:52:40;;;;;;;6.82;3.70;;;;;;;17.85;100.00;100347.38;5074645;28;20504;-60
2023/07/24 00:55:06;;;;;;;5.90;4.07;;;;;;;17.86;100.00;100341.13;5074729;28;20444;-61
2023/07/24 00:57:32;;;;;;;7.20;4.20;;;;;;;17.87;100.00;100352.69;5074929;28;20029;-61
2023/07/24 00:59:57;;;;;;;6.38;4.25;;;;;;;17.85;100.00;100334.00;5074607;28;20021;-61
2023/07/24 01:02:23;;;;;;;6.90;4.30;;;;;;;17.84;100.00;100340.28;5074579;28;20386;-61
2023/07/24 01:04:48;;;;;;;7.93;4.55;;;;;;;17.81;100.00;100340.34;5074553;28;20031;-61
2023/07/24 01:07:16;;;;;;;6.35;4.50;;;;;;;17.79;100.00;100339.53;5074367;28;20040;-60
2023/07/24 01:09:42;;;;;;;7.60;4.47;;;;;;;17.74;100.00;100326.31;5074080;28;20471;-61
2023/07/24 01:12:19;;;;;;;8.52;4.30;;;;;;;17.76;100.00;100326.25;5074363;28;20074;-60
2023/07/24 01:14:49;;;;;;;8.23;4.50;;;;;;;17.78;100.00;100327.09;5074297;28;20025;-61
2023/07/24 01:17:19;;;;;;;9.40;4.68;;;;;;;17.77;100.00;100326.22;5074383;28;20056;-61
2023/07/24 01:19:51;;;;;;;8.15;4.65;;;;;;;17.80;100.00;100316.34;5074253;28;20040;-60
2023/07/24 01:22:19;;;;;;;;;;;;;;;17.81;100.00;100318.97;5074567;28;20052;-61
2023/07/24 01:25:04;;;;;;;9.23;4.57;;;;;;;17.76;100.00;100308.41;5074431;28;19918;-61
2023/07/24 01:27:29;;;;;;;8.30;4.90;;;;;;;17.77;100.00;100323.56;5074470;28;20059;-61
2023/07/24 01:29:55;;;;;;;9.18;4.65;;;;;;;17.77;100.00;100322.66;5074065;28;20064;-62
2023/07/24 01:32:20;;;;;;;9.40;5.60;;;;;;;17.77;100.00;100318.22;5074235;28;20036;-61
2023/07/24 01:34:47;;;;;;;8.98;5.40;;;;;;;17.78;100.00;100308.41;5073768;28;20406;-60
2023/07/24 01:37:13;;;;;;;7.38;4.90;;;;;;;17.80;100.00;100303.88;5074115;28;20367;-61
2023/07/24 01:39:41;;;;;;;10.48;5.28;;;;;;;17.81;100.00;100307.41;5073805;28;20021;-62
2023/07/24 01:42:06;;;;;;;10.35;5.32;;;;;;;17.80;100.00;100308.34;5073718;28;20028;-62
2023/07/24 01:44:31;;;;;;;9.05;5.05;;;;;;;17.81;100.00;100310.97;5073767;28;20024;-62
2023/07/24 01:46:57;;;;;;;10.98;5.40;;;;;;;17.83;100.00;100316.28;5073527;28;20079;-62
2023/07/24 01:49:22;;;;;;;8.30;5.60;;;;;;;17.81;100.00;100307.41;5073676;28;20562;-62
2023/07/24 01:51:48;;;;;;;9.30;5.68;;;;;;;17.79;100.00;100293.22;5073674;28;20029;-62
2023/07/24 01:54:13;;;;;;;14.30;4.93;;;;;;;17.77;100.00;100295.91;5073491;28;20035;-62
2023/07/24 01:56:39;;;;;;;11.45;5.25;;;;;;;17.76;100.00;100286.16;5073555;28;20107;-61
2023/07/24 01:59:05;;;;;;;10.02;5.20;;;;;;;17.76;100.00;100267.44;5073792;28;20119;-61
2023/07/24 02:01:30;;;;;;;9.10;5.40;;;;;;;17.76;100.00;100267.44;5073744;28;20104;-61
2023/07/24 02:03:56;;;;;;;7.05;4.70;;;;;;;17.78;100.00;100270.97;5073428;28;20515;-61
2023/07/24 02:06:21;;;;;;;7.80;5.00;;;;;;;17.78;100.00;100262.97;5073632;28;20053;-61
2023/07/24 02:08:48;;;;;;;7.85;4.90;;;;;;;17.79;100.00;100271.84;5073480;28;20452;-62
2023/07/24 02:11:17;;;;;;;8.93;4.75;;;;;;;17.80;100.00;100266.44;5073623;28;20033;-61
2023/07/24 02:13:46;;;;;;;10.82;4.65;;;;;;;17.79;100.00;100259.34;5073286;28;20037;-61
2023/07/24 02:16:14;;;;;;;8.27;4.68;;;;;;;17.80;100.00;100255.75;5073140;28;20024;-59
2023/07/24 02:18:43;;;;;;;6.45;4.30;;;;;;;17.82;100.00;100250.38;5073300;28;20029;-61
2023/07/24 02:21:09;;;;;;;8.63;4.28;;;;;;;17.83;100.00;100253.00;5072511;28;20052;-61
2023/07/24 02:23:35;;;;;;;5.65;4.40;;;;;;;17.85;100.00;100247.59;5073227;28;20502;-61
2023/07/24 02:26:01;;;;;;;8.10;4.38;;;;;;;17.84;100.00;100256.56;5073163;28;20390;-61
2023/07/24 02:28:26;;;;;;;6.75;4.20;;;;;;;17.85;100.00;100252.94;5073182;28;20028;-61
2023/07/24 02:30:55;;;;;;;5.65;3.85;;;;;;;17.86;100.00;100242.25;5073299;28;20482;-61
2023/07/24 02:33:21;;;;;;;7.53;4.25;;;;;;;17.88;100.00;100236.84;5072873;28;20588;-61
2023/07/24 02:35:47;;;;;;;6.82;4.15;;;;;;;17.90;100.00;100238.56;5073035;28;20041;-61
2023/07/24 02:38:12;;;;;;;6.90;4.45;;;;;;;17.90;100.00;100243.00;5055024;28;20059;-61
2023/07/24 02:40:41;;;;;;;6.45;4.80;;;;;;;17.89;100.00;100249.28;5073060;28;20028;-61
2023/07/24 02:43:06;;;;;;;8.38;4.43;;;;;;;17.89;100.00;100247.47;5073063;28;20060;-61
2023/07/24 02:45:34;;;;;;;10.70;4.72;;;;;;;17.97;100.00;100257.94;5073147;28;20064;-61
2023/07/24 02:48:01;;;;;;;8.43;4.55;;;;;;;17.99;100.00;100258.81;5073131;28;20100;-61
2023/07/24 02:50:27;;;;;;;7.53;4.60;;;;;;;18.00;100.00;100258.75;5072948;28;20029;-62
2023/07/24 02:52:52;;;;;;;6.00;4.00;;;;;;;17.96;100.00;100250.84;5073146;28;20040;-61
2023/07/24 02:55:17;;;;;;;4.70;3.47;;;;;;;17.97;100.00;100237.44;5072910;28;20542;-62
2023/07/24 02:57:43;;;;;;;6.72;3.92;;;;;;;17.95;100.00;100230.41;5072909;28;20025;-61
2023/07/24 03:00:09;;;;;;;5.55;3.83;;;;;;;17.93;100.00;100235.78;5072912;28;20078;-62
2023/07/24 03:02:35;;;;;;;7.40;3.80;;;;;;;17.93;100.00;100241.13;5073084;28;20032;-61
2023/07/24 03:05:00;;;;;;;5.70;3.67;;;;;;;17.93;100.00;100248.25;5072837;28;20055;-61
2023/07/24 03:07:25;;;;;;;5.63;4.00;;;;;;;17.90;100.00;100249.25;5072851;28;20029;-61
2023/07/24 03:09:51;;;;;;;6.53;3.72;;;;;;;17.90;100.00;100267.06;5073025;28;20079;-62
2023/07/24 03:12:16;;;;;;;5.78;3.83;;;;;;;17.87;100.00;100254.69;5054834;28;20470;-62
2023/07/24 03:14:42;;;;;;;5.43;3.80;;;;;;;17.85;100.00;100236.91;5072830;28;20040;-62
2023/07/24 03:17:07;;;;;;;5.38;3.60;;;;;;;17.76;100.00;100214.88;5072556;28;20028;-62
2023/07/24 03:19:32;;;;;;;5.57;3.60;;;;;;;17.69;100.00;100218.63;5072693;28;20052;-62
2023/07/24 03:21:58;;;;;;;6.60;3.60;;;;;;;17.65;100.00;100229.47;5054651;28;20033;-62
2023/07/24 03:24:23;;;;;;;5.05;3.40;;;;;;;17.61;100.00;100234.00;5072655;28;20078;-62
2023/07/24 03:26:48;;;;;;;6.53;3.40;;;;;;;17.58;100.00;100250.09;5072608;28;20115;-62
2023/07/24 03:29:14;;;;;;;5.72;3.80;;;;;;;17.57;100.00;100259.06;5072662;28;20086;-62
2023/07/24 03:31:39;;;;;;;7.00;3.78;;;;;;;17.55;100.00;100246.63;5073375;28;20107;-62
2023/07/24 03:34:04;;;;;;;5.97;3.83;;;;;;;17.50;100.00;100239.63;5076011;28;20060;-62
2023/07/24 03:36:30;;;;;;;6.30;3.85;;;;;;;17.46;100.00;100240.63;5076109;28;20569;-62
2023/07/24 03:38:55;;;;;;;4.95;3.65;;;;;;;17.44;100.00;100228.25;5076125;28;20031;-62
2023/07/24 03:41:21;;;;;;;5.30;3.80;;;;;;;17.39;100.00;100228.38;5076109;28;20103;-62
2023/07/24 03:43:46;;;;;;;5.40;4.13;;;;;;;17.36;100.00;100228.44;5076014;28;20029;-61
2023/07/24 03:46:11;;;;;;;6.68;4.15;;;;;;;17.34;100.00;100222.25;5076125;28;20104;-61
2023/07/24 03:48:37;;;;;;;6.90;4.30;;;;;;;17.29;100.00;100218.84;5076019;28;20378;-61
2023/07/24 03:51:02;;;;;;;5.35;3.72;;;;;;;17.28;100.00;100217.97;5075965;28;20027;-61
2023/07/24 03:53:28;;;;;;;6.07;3.55;;;;;;;17.26;100.00;100222.50;5075975;28;20063;-61
2023/07/24 03:55:54;;;;;;;5.60;3.58;;;;;;;17.26;100.00;100218.94;5075892;28;20032;-61
2023/07/24 03:58:19;;;;;;;6.35;3.80;;;;;;;17.23;100.00;100224.38;5075776;28;20029;-61
2023/07/24 04:00:45;;;;;;;5.28;3.60;;;;;;;17.24;100.00;100228.78;5076030;28;20036;-61
2023/07/24 04:03:11;;;;;;;5.93;3.92;;;;;;;17.28;100.00;100220.63;5075785;28;20509;-61
2023/07/24 04:05:36;;;;;;;4.97;3.47;;;;;;;17.27;100.00;100226.91;5075654;28;20063;-61
2023/07/24 04:08:02;;;;;;;5.65;3.70;;;;;;;17.32;100.00;100228.59;5075965;28;20115;-60
2023/07/24 04:10:28;;;;;;;5.70;3.75;;;;;;;17.32;100.00;100223.25;5075619;28;20482;-60
2023/07/24 04:12:53;;;;;;;6.22;3.85;;;;;;;17.32;100.00;100239.25;5075449;28;20029;-61
2023/07/24 04:15:19;;;;;;;5.40;4.00;;;;;;;17.27;100.00;100239.38;5075788;28;20020;-60
2023/07/24 04:17:44;;;;;;;5.10;3.67;;;;;;;17.27;100.00;100250.06;5075249;28;20040;-61
2023/07/24 04:20:10;;;;;;;6.35;3.85;;;;;;;17.21;100.00;100250.22;5075460;28;20155;-62
2023/07/24 04:22:35;;;;;;;6.13;4.25;;;;;;;17.21;100.00;100245.75;5075362;28;20051;-62
2023/07/24 04:25:01;;;;;;;6.80;3.90;;;;;;;17.18;100.00;100248.50;5075297;28;20035;-62
2023/07/24 04:27:26;;;;;;;6.40;4.15;;;;;;;17.15;100.00;100237.03;5075099;28;20032;-61
2023/07/24 04:29:52;;;;;;;5.85;4.05;;;;;;;17.14;100.00;100244.16;5075076;28;20078;-61
2023/07/24 04:32:17;;;;;;;8.30;3.88;;;;;;;17.15;100.00;100235.25;5056812;28;20083;-61
2023/07/24 04:34:42;;;;;;;6.53;4.32;;;;;;;17.17;100.00;100236.09;5074623;28;20052;-61
2023/07/24 04:37:08;;;;;;;6.32;4.30;;;;;;;17.18;100.00;100237.84;5074745;28;20079;-62
2023/07/24 04:39:33;;;;;;;6.00;4.30;;;;;;;17.15;100.00;100245.03;5075227;28;20032;-61
2023/07/24 04:41:59;;;;;;;5.30;4.05;;;;;;;17.15;100.00;100255.72;5074870;28;20031;-61
2023/07/24 04:44:24;;;;;;;6.93;4.45;;;;;;;17.14;100.00;100251.31;5074108;28;20039;-61
2023/07/24 04:46:50;;;;;;;7.50;4.03;;;;;;;17.11;100.00;100252.25;5074638;28;20024;-61
2023/07/24 04:49:16;;;;;;;6.80;4.72;;;;;;;17.10;100.00;100250.50;5074571;28;20452;-61
2023/07/24 04:51:41;;;;;;;7.10;4.35;;;;;;;17.14;100.00;100253.97;5074519;28;20025;-61
2023/07/24 04:54:07;;;;;;;7.25;4.35;;;;;;;17.18;100.00;100242.31;5074262;28;20046;-61
2023/07/24 04:56:32;;;;;;;6.57;4.40;;;;;;;17.21;100.00;100242.19;5074434;28;20086;-61
2023/07/24 04:58:58;;;;;;;5.40;3.97;;;;;;;17.24;100.00;100252.81;5074312;28;20518;-61
2023/07/24 05:01:23;;;;;;;6.65;4.38;;;;;;;17.19;100.00;100255.59;5056222;28;20415;-61
2023/07/24 05:03:48;;;;;;;5.32;4.13;;;;;;;17.19;100.00;100252.06;5074194;28;20055;-60
2023/07/24 05:06:14;;;;;;;4.70;4.20;;;;;;;17.17;100.00;100246.78;5074368;28;20030;-61
2023/07/24 05:08:39;;;;;;;4.78;4.20;;;;;;;17.17;100.00;100252.09;5074418;28;20055;-60
2023/07/24 05:11:04;;;;;;;5.60;4.05;;;;;;;17.18;100.00;100243.19;5074095;28;20055;-61
2023/07/24 05:13:30;;;;;;;5.55;4.07;;;;;;;17.18;100.00;100239.63;5073981;28;20032;-61
2023/07/24 05:15:55;;;;;;;4.85;4.00;;;;;;;17.20;100.00;100252.00;5073778;28;20497;-61
2023/07/24 05:18:21;;;;;;;5.80;4.30;;;;;;;17.22;100.00;100255.53;5074079;28;20021;-60
2023/07/24 05:20:48;;;;;;;6.10;4.43;;;;;;;17.25;100.00;100262.56;5073810;28;20021;-60
2023/07/24 05:23:14;;;;;;;5.13;4.28;;;;;;;17.21;100.00;100272.44;5073955;28;20032;-60
2023/07/24 05:25:39;;;;;;;5.47;4.30;;;;;;;17.19;100.00;100268.94;5073937;28;20017;-60
2023/07/24 05:28:04;;;;;;;6.10;4.18;;;;;;;17.19;100.00;100270.75;5073973;28;20051;-60
2023/07/24 05:30:30;;;;;;;7.85;4.60;;;;;;;17.16;100.00;100262.81;5074000;28;20508;-60
2023/07/24 05:32:55;;;;;;;5.72;4.53;;;;;;;17.13;100.00;100273.56;5073654;28;20029;-60
2023/07/24 05:35:21;;;;;;;6.13;4.85;;;;;;;17.12;100.00;100266.47;5073760;28;20509;-60
2023/07/24 05:37:46;;;;;;;5.85;4.30;;;;;;;17.10;100.00;100270.97;5073631;28;20025;-60
2023/07/24 05:40:11;;;;;;;6.53;4.80;;;;;;;17.08;100.00;100265.66;5073830;28;20498;-62
2023/07/24 05:42:41;;;;;;;6.20;4.95;;;;;;;17.08;100.00;100267.47;5073605;28;20543;-60
2023/07/24 05:45:07;;;;;;;6.45;5.70;;;;;;;17.09;100.00;100271.91;5073452;28;20039;-60
2023/07/24 05:47:33;;;;;;;7.90;5.43;;;;;;;17.12;100.00;100270.00;5073546;28;20540;-61
2023/07/24 05:49:58;;;;;;;8.70;5.43;;;;;;;17.17;100.00;100268.13;5073381;28;20024;-60
2023/07/24 05:52:24;;;;;;;8.65;5.50;;;;;;;17.22;100.00;100271.56;5073299;28;20382;-60
2023/07/24 05:54:49;;;;;;;7.95;5.63;;;;;;;17.31;100.00;100272.22;5072672;28;20025;-61
2023/07/24 05:57:14;;;;;;;6.40;5.70;;;;;;;17.32;100.00;100282.88;5072987;28;20035;-60
2023/07/24 05:59:40;;;;;;;9.57;6.10;;;;;;;17.35;100.00;100276.56;5073245;28;20100;-60
2023/07/24 06:02:07;;;;;;;12.15;6.55;;;;;;;17.32;100.00;100288.19;5073446;28;20037;-60
2023/07/24 06:04:32;;;;;;;8.32;5.88;;;;;;;17.30;100.00;100292.72;5073372;28;20107;-61
2023/07/24 06:06:58;;;;;;;8.75;5.90;;;;;;;17.30;100.00;100289.16;5073034;28;20405;-60
2023/07/24 06:09:23;;;;;;;8.10;6.93;;;;;;;17.31;100.00;100282.91;5073350;28;20083;-60
2023/07/24 06:11:48;;;;;;;9.63;6.80;;;;;;;17.34;100.00;100281.00;5073080;28;20525;-60
2023/07/24 06:14:14;;;;;;;8.10;6.50;;;;;;;17.31;100.00;100280.25;5073060;28;20343;-60
2023/07/24 06:16:39;;;;;;;9.60;5.97;;;;;;;17.31;100.00;100289.13;5073056;28;20069;-60
2023/07/24 06:19:05;;;;;;;8.35;6.35;;;;;;;17.32;100.00;100288.19;5073230;28;20101;-60
2023/07/24 06:21:30;;;;;;;9.05;6.38;;;;;;;17.37;100.00;100290.75;5072764;28;20067;-60
2023/07/24 06:23:56;;;;;;;8.75;6.65;;;;;;;17.43;100.00;100294.16;5072894;28;20036;-60
2023/07/24 06:26:21;;;;;;;8.23;6.30;;;;;;;17.52;100.00;100290.38;5073129;28;20489;-60
2023/07/24 06:28:47;;;;;;;7.82;6.35;;;;;;;17.67;100.00;100297.94;5072930;28;20033;-63
2023/07/24 06:31:12;;;;;;;7.72;6.35;;;;;;;17.83;100.00;100278.88;5054849;28;20019;-60
2023/07/24 06:33:38;;;;;;;8.38;6.10;;;;;;;17.94;100.00;100287.44;5072531;28;20056;-60
2023/07/24 06:36:03;;;;;;;8.68;6.28;;;;;;;18.09;100.00;100292.34;5054606;28;20364;-59
2023/07/24 06:38:29;;;;;;;8.60;5.75;;;;;;;18.16;100.00;100285.91;5072701;28;20031;-60
2023/07/24 06:40:54;;;;;;;9.25;6.18;;;;;;;18.21;100.00;100289.31;5072734;28;20024;-60
2023/07/24 06:43:19;;;;;;;8.48;5.82;;;;;;;18.19;100.00;100288.47;5072703;28;20039;-60
2023/07/24 06:45:45;;;;;;;7.75;6.00;;;;;;;18.15;100.00;100285.94;5072633;28;20107;-60
2023/07/24 06:48:10;;;;;;;11.60;5.50;;;;;;;18.12;100.00;100289.59;5072605;28;20040;-60
2023/07/24 06:50:35;;;;;;;7.10;5.68;;;;;;;18.08;100.00;100290.59;5072783;28;20031;-60
2023/07/24 06:53:01;;;;;;;9.25;6.20;;;;;;;18.04;100.00;100290.75;5072630;28;20132;-60
2023/07/24 06:55:26;;;;;;;7.65;5.90;;;;;;;18.01;100.00;100294.38;5072563;28;20032;-60
2023/07/24 06:57:52;;;;;;;7.93;5.95;;;;;;;17.96;100.00;100280.25;5072515;28;20449;-61
2023/07/24 07:00:17;;;;;;;8.60;5.93;;;;;;;17.92;100.00;100290.16;5072611;28;20020;-61
2023/07/24 07:02:42;;;;;;;8.77;5.50;;;;;;;17.89;100.00;100284.91;5072767;28;20098;-60
2023/07/24 07:05:08;;;;;;;10.68;5.68;;;;;;;17.87;100.00;100291.22;5072460;28;20027;-60
2023/07/24 07:07:33;;;;;;;7.90;5.82;;;;;;;17.82;100.00;100288.69;5074941;28;20029;-61
2023/07/24 07:09:59;;;;;;;7.50;5.82;;;;;;;17.85;100.00;100285.91;5076282;28;20120;-60
2023/07/24 07:12:24;;;;;;;8.45;6.22;;;;;;;17.86;100.00;100286.78;5058285;28;20128;-61
2023/07/24 07:14:49;;;;;;;8.35;6.10;;;;;;;17.84;100.00;100286.81;5076257;28;20029;-60
2023/07/24 07:17:15;;;;;;;8.18;6.22;;;;;;;17.85;100.00;100290.38;5076169;28;20039;-60
2023/07/24 07:19:40;;;;;;;8.27;6.32;;;;;;;17.87;100.00;100283.19;5076481;28;20028;-60
2023/07/24 07:22:06;;;;;;;9.18;5.88;;;;;;;17.87;100.00;100288.56;5076114;28;20035;-60
2023/07/24 07:24:31;;;;;;;7.88;5.70;;;;;;;17.87;100.00;100286.75;5076197;28;20032;-61
2023/07/24 07:26:57;;;;;;;7.95;5.10;;;;;;;17.83;100.00;100292.22;5076073;28;20485;-60
2023/07/24 07:29:22;;;;;;;8.07;5.53;;;;;;;17.75;100.00;100290.63;5076074;28;20032;-60
2023/07/24 07:31:47;;;;;;;7.00;4.70;;;;;;;17.72;100.00;100282.66;5075997;28;20031;-60
2023/07/24 07:34:13;;;;;;;6.95;4.50;;;;;;;17.72;100.00;100284.47;5075677;28;20052;-60
2023/07/24 07:36:38;;;;;;;5.57;4.30;;;;;;;17.66;100.00;100296.19;5075904;28;20029;-60
2023/07/24 07:39:03;;;;;;;6.93;4.35;;;;;;;17.63;100.00;100287.38;5075854;28;20150;-60
2023/07/24 07:41:29;;;;;;;6.93;4.32;;;;;;;17.72;100.00;100287.13;5075890;28;20056;-60
2023/07/24 07:43:54;;;;;;;6.15;4.40;;;;;;;17.74;100.00;100293.34;5075837;28;20027;-60
2023/07/24 07:46:20;;;;;;;6.47;4.18;;;;;;;17.95;100.00;100290.09;5075640;28;20025;-60
2023/07/24 07:48:49;;;;;;;5.53;4.22;;;;;;;18.18;100.00;100283.19;5075729;28;20041;-60
2023/07/24 07:51:14;;;;;;;7.60;4.38;;;;;;;18.36;100.00;100287.09;5058129;28;20024;-59
2023/07/24 07:53:40;;;;;;;6.05;4.00;;;;;;;18.54;100.00;100283.84;5057219;28;20028;-60
2023/07/24 07:56:05;;;;;;;5.82;3.95;;;;;;;18.87;100.00;100281.09;5075855;28;20111;-60
2023/07/24 07:58:31;;;;;;;5.78;3.90;;;;;;;18.97;100.00;100275.41;5075534;28;20532;-59
2023/07/24 08:00:56;;;;;;;6.15;3.95;;;;;;;18.98;98.05;100277.13;5075452;28;20024;-60
2023/07/24 08:03:21;;;;;;;6.32;4.10;;;;;;;18.95;98.73;100279.91;5075359;28;20033;-60
2023/07/24 08:05:47;;;;;;;6.50;4.00;;;;;;;18.91;98.40;100274.72;5057596;28;20028;-59
2023/07/24 08:08:13;;;;;;;6.45;3.88;;;;;;;18.88;98.45;100281.03;5075503;28;20338;-59
2023/07/24 08:10:39;;;;;;;5.68;3.72;;;;;;;18.82;97.73;100286.59;5075303;28;20449;-60
2023/07/24 08:13:05;;;;;;;5.35;4.25;;;;;;;18.82;98.18;100288.41;5075355;28;20031;-60
2023/07/24 08:15:35;;;;;;;6.07;4.40;;;;;;;18.91;99.22;100294.31;5075131;28;20040;-60
2023/07/24 08:18:00;;;;;;;8.82;4.50;;;;;;;18.97;100.00;100291.47;5074460;28;20108;-61
2023/07/24 08:20:25;;;;;;;5.97;4.28;;;;;;;18.96;97.27;100291.50;5074640;28;20195;-59
2023/07/24 08:22:51;;;;;;;5.38;4.43;;;;;;;19.02;99.81;100292.19;5074725;28;20028;-59
2023/07/24 08:25:16;;;;;;;6.82;4.65;;;;;;;19.06;99.27;100287.59;5075051;28;20448;-59
2023/07/24 08:27:43;;;;;;;6.72;4.80;;;;;;;19.09;98.91;100281.25;5074863;28;20031;-60
2023/07/24 08:30:09;;;;;;;6.78;5.28;;;;;;;19.08;98.36;100271.47;5074978;28;20025;-60
2023/07/24 08:32:34;;;;;;;9.00;6.43;;;;;;;19.08;96.75;100276.81;5075122;28;20024;-59
2023/07/24 08:34:59;;;;;;;8.23;6.10;;;;;;;19.09;96.19;100275.91;5074672;28;20044;-60
2023/07/24 08:37:25;;;;;;;8.02;6.18;;;;;;;19.15;96.38;100284.63;5074758;28;20371;-60
2023/07/24 08:39:50;;;;;;;8.73;6.50;;;;;;;19.23;98.49;100284.38;5074801;28;20107;-60
2023/07/24 08:42:15;;;;;;;8.77;7.22;;;;;;;19.26;98.21;100277.06;5074679;28;20028;-59
2023/07/24 08:44:42;;;;;;;9.32;6.63;;;;;;;19.28;98.10;100271.69;5074667;28;20124;-60
2023/07/24 08:47:11;;;;;;;8.57;6.13;;;;;;;19.27;97.22;100280.63;5074356;28;20385;-60
2023/07/24 08:49:38;;;;;;;8.48;6.40;;;;;;;19.26;98.02;100276.19;5074582;28;20016;-60
2023/07/24 08:52:05;;;;;;;8.90;6.25;;;;;;;19.29;99.04;100275.22;5074671;28;20020;-60
2023/07/24 08:54:35;;;;;;;10.98;7.00;;;;;;;19.24;98.62;100280.75;5074358;28;20089;-60
2023/07/24 08:57:02;;;;;;;8.90;6.47;;;;;;;19.21;98.11;100275.50;5074545;28;20027;-59
2023/07/24 08:59:27;;;;;;;9.52;6.97;;;;;;;19.16;98.47;100270.28;5074634;28;20086;-59
2023/07/24 09:01:53;;;;;;;10.20;7.10;;;;;;;19.19;100.00;100270.19;5074411;28;20041;-59
2023/07/24 09:04:18;;;;;;;10.80;7.60;;;;;;;19.19;98.65;100267.50;5074315;28;20498;-60
2023/07/24 09:06:45;;;;;;;9.88;6.55;;;;;;;19.20;98.12;100263.03;5074222;28;20388;-59
2023/07/24 09:09:14;;;;;;;9.18;6.75;;;;;;;19.23;98.85;100258.44;5074139;28;20046;-59
2023/07/24 09:11:50;;;;;;;8.38;6.38;;;;;;;19.34;99.02;100259.88;5074101;28;20553;-60
2023/07/24 09:14:27;;;;;;;9.18;6.10;;;;;;;19.38;97.53;100253.47;5074023;28;20039;-60
2023/07/24 09:17:09;;;;;;;8.57;6.75;;;;;;;19.40;98.35;100246.25;5073618;28;20051;-61
2023/07/24 09:19:36;;;;;;;9.43;5.85;;;;;;;19.33;98.27;100237.56;5074171;28;20036;-60
2023/07/24 09:22:12;;;;;;;8.48;6.07;;;;;;;19.45;99.97;100234.47;5073301;28;20504;-60
2023/07/24 09:24:37;;;;;;;10.93;6.88;;;;;;;19.65;100.00;100233.75;5074308;28;20053;-60
2023/07/24 09:27:07;;;;;;;7.85;5.90;;;;;;;19.83;97.96;100226.88;5074041;28;20481;-60
2023/07/24 09:29:33;;;;;;;10.63;6.57;;;;;;;20.03;98.03;100223.41;5073735;28;20032;-61
2023/07/24 09:31:59;;;;;;;11.35;7.07;;;;;;;20.36;99.74;100218.56;5073675;28;20021;-60
2023/07/24 09:34:25;;;;;;;8.65;6.05;;;;;;;20.44;97.65;100212.88;5073500;28;20049;-60
2023/07/24 09:36:51;;;;;;;7.80;5.93;;;;;;;20.37;95.00;100206.88;5073636;28;20445;-60
2023/07/24 09:39:25;;;;;;;7.20;5.40;;;;;;;20.29;92.90;100214.34;5073246;28;20070;-60
2023/07/24 09:41:52;;;;;;;7.18;4.40;;;;;;;20.16;92.21;100205.91;5073804;28;20055;-60
2023/07/24 09:44:17;;;;;;;5.55;4.53;;;;;;;20.06;93.16;100203.66;5073560;28;20029;-60
2023/07/24 09:46:43;;;;;;;8.20;4.28;;;;;;;20.01;91.85;100193.09;5073254;28;20552;-59
2023/07/24 09:49:09;;;;;;;6.35;4.80;;;;;;;19.99;93.75;100189.59;5073440;28;20024;-60
2023/07/24 09:51:35;;;;;;;8.27;4.95;;;;;;;19.98;93.43;100186.03;5073617;28;20032;-60
2023/07/24 09:54:16;;;;;;;6.63;4.70;;;;;;;19.90;93.03;100177.41;5055647;28;20040;-59
2023/07/24 09:56:42;;;;;;;6.10;4.20;;;;;;;19.90;92.65;100184.59;5073440;28;20032;-60
2023/07/24 09:59:10;;;;;;;5.57;4.18;;;;;;;19.82;91.03;100178.63;5073546;28;20039;-59
2023/07/24 10:01:37;;;;;;;7.22;4.30;;;;;;;19.73;91.41;100169.13;5073209;28;20035;-59
2023/07/24 10:04:04;;;;;;;5.68;4.47;;;;;;;19.74;92.46;100177.16;5073222;28;20024;-59
2023/07/24 10:06:29;;;;;;;7.78;4.03;;;;;;;19.76;91.96;100169.03;5055468;28;20032;-59
2023/07/24 10:08:55;;;;;;;6.22;4.35;;;;;;;19.72;91.34;100170.09;5073040;28;20036;-60
2023/07/24 10:11:22;;;;;;;8.13;4.50;;;;;;;19.67;92.29;100177.44;5073137;28;20024;-60
2023/07/24 10:13:48;;;;;;;7.63;4.78;;;;;;;19.67;92.74;100180.09;5073101;28;20115;-60
2023/07/24 10:16:14;;;;;;;6.47;4.60;;;;;;;19.64;92.47;100198.97;5073002;28;20020;-60
2023/07/24 10:18:46;;;;;;;5.93;4.55;;;;;;;19.51;91.33;100211.91;5073151;28;20036;-60
2023/07/24 10:21:11;;;;;;;;;;;;;;;19.50;92.62;100213.72;5073413;28;20025;-60
2023/07/24 10:23:41;;;;;;;5.53;4.05;;;;;;;19.36;92.73;100205.31;5072985;28;19962;-59
2023/07/24 10:26:08;;;;;;;5.22;3.90;;;;;;;19.27;92.08;100213.66;5073133;28;20082;-59
2023/07/24 10:28:38;;;;;;;6.45;3.92;;;;;;;19.19;92.54;100218.44;5072868;28;20117;-60
2023/07/24 10:31:08;;;;;;;7.10;4.28;;;;;;;19.13;94.06;100223.97;5073035;28;20089;-60
2023/07/24 10:33:37;;;;;;;4.90;4.20;;;;;;;19.10;93.65;100222.31;5072537;28;20510;-60
2023/07/24 10:36:09;;;;;;;5.78;4.18;;;;;;;19.11;94.61;100223.19;5073037;28;20072;-60
2023/07/24 10:38:35;;;;;;;;;;;;;;;19.19;94.25;100219.31;5073506;28;20032;-60
2023/07/24 10:41:05;;;;;;;5.32;4.18;;;;;;;19.12;93.96;100212.41;5073810;28;19920;-60
2023/07/24 10:43:42;;;;;;;5.70;4.30;;;;;;;19.12;92.88;100215.06;5079371;28;20489;-60
2023/07/24 10:46:07;;;;;;;7.47;4.05;;;;;;;19.13;93.61;100215.94;5079477;28;20424;-59
2023/07/24 10:48:33;;;;;;;6.38;4.70;;;;;;;19.10;93.49;100214.28;5079384;28;20032;-59
2023/07/24 10:50:58;;;;;;;8.65;5.05;;;;;;;19.07;93.26;100229.56;5079385;28;20059;-61
2023/07/24 10:53:24;;;;;;;6.18;4.63;;;;;;;19.09;93.98;100233.03;5079310;28;20047;-60
2023/07/24 10:55:50;;;;;;;5.45;4.65;;;;;;;19.04;93.36;100243.91;5079321;28;20029;-60
2023/07/24 10:58:16;;;;;;;6.10;5.10;;;;;;;19.17;93.80;100229.19;5061281;28;20078;-60
2023/07/24 11:00:43;;;;;;;5.82;5.00;;;;;;;19.25;91.91;100228.91;5079408;28;20020;-60
2023/07/24 11:03:10;;;;;;;5.78;4.97;;;;;;;19.39;92.63;100223.06;5079207;28;20033;-60
2023/07/24 11:05:42;;;;;;;7.53;5.35;;;;;;;19.45;93.14;100229.09;5079244;28;20024;-61
2023/07/24 11:08:20;;;;;;;8.40;4.90;;;;;;;19.50;91.79;100232.47;5079212;28;20036;-60
2023/07/24 11:10:49;;;;;;;7.10;5.30;;;;;;;19.43;90.00;100228.25;5079048;28;20081;-58
2023/07/24 11:13:20;;;;;;;6.70;5.00;;;;;;;19.53;91.33;100226.16;5078971;28;20027;-58
2023/07/24 11:15:46;;;;;;;7.55;5.70;;;;;;;19.67;91.94;100223.88;5078969;28;20039;-58